createdAt,value
2019-03-19T00:00:18.913Z,2.10
2019-03-19T00:02:46.736Z,2.10
2019-03-19T00:05:13.951Z,2.10
2019-03-19T00:07:41.164Z,2.10
2019-03-19T00:10:09.180Z,2.10
2019-03-19T00:12:36.546Z,2.00
2019-03-19T00:15:04.060Z,2.00
2019-03-19T00:17:32.261Z,1.70
2019-03-19T00:19:59.479Z,1.50
2019-03-19T00:22:26.705Z,1.30
2019-03-19T00:24:54.392Z,1.30
2019-03-19T00:27:22.293Z,1.10
2019-03-19T00:29:49.522Z,1.20
2019-03-19T00:32:17.396Z,1.10
2019-03-19T00:34:44.992Z,1.00
2019-03-19T00:37:12.205Z,0.90
2019-03-19T00:39:39.446Z,0.90
2019-03-19T00:42:06.929Z,0.80
2019-03-19T00:44:34.387Z,0.80
2019-03-19T00:47:02.153Z,0.90
2019-03-19T00:49:29.477Z,0.90
2019-03-19T00:51:57.375Z,1.00
2019-03-19T00:54:24.613Z,1.00
2019-03-19T00:56:52.356Z,1.00
2019-03-19T00:59:19.467Z,0.90
2019-03-19T01:01:46.887Z,0.90
2019-03-19T01:04:14.448Z,0.90
2019-03-19T01:06:42.008Z,0.70
2019-03-19T01:09:09.223Z,0.60
2019-03-19T01:11:36.924Z,0.60
2019-03-19T01:14:04.579Z,0.70
2019-03-19T01:16:31.824Z,0.80
2019-03-19T01:18:59.043Z,0.90
2019-03-19T01:21:26.285Z,0.90
2019-03-19T01:23:53.775Z,0.80
2019-03-19T01:26:21.036Z,0.80
2019-03-19T01:28:48.262Z,0.70
2019-03-19T01:31:15.891Z,0.70
2019-03-19T01:33:43.399Z,0.70
2019-03-19T01:36:10.648Z,0.50
2019-03-19T01:38:37.872Z,0.50
2019-03-19T01:41:05.375Z,0.50
2019-03-19T01:43:33.082Z,0.40
2019-03-19T01:46:00.404Z,0.30
2019-03-19T01:48:27.948Z,0.30
2019-03-19T01:50:55.203Z,0.40
2019-03-19T01:53:22.867Z,0.40
2019-03-19T01:55:50.133Z,0.20
2019-03-19T01:58:17.671Z,0.10
2019-03-19T02:00:44.920Z,0.20
2019-03-19T02:03:12.585Z,0.20
2019-03-19T02:05:39.824Z,0.30
2019-03-19T02:08:07.052Z,0.30
2019-03-19T02:10:34.267Z,0.40
2019-03-19T02:13:02.106Z,0.40
2019-03-19T02:15:29.316Z,0.40
2019-03-19T02:17:56.571Z,0.30
2019-03-19T02:20:23.783Z,0.20
2019-03-19T02:22:51.317Z,0.20
2019-03-19T02:25:18.772Z,0.00
2019-03-19T02:27:46.350Z,-0.10
2019-03-19T02:30:13.934Z,0.00
2019-03-19T02:32:41.317Z,0.00
2019-03-19T02:35:08.799Z,0.00
2019-03-19T02:37:36.289Z,0.00
2019-03-19T02:40:03.837Z,0.00
2019-03-19T02:42:31.174Z,-0.10
2019-03-19T02:44:58.732Z,-0.10
2019-03-19T02:47:26.296Z,-0.10
2019-03-19T02:49:53.522Z,-0.10
2019-03-19T02:52:20.919Z,-0.10
2019-03-19T02:54:48.926Z,-0.10
2019-03-19T02:57:16.544Z,-0.10
2019-03-19T02:59:44.207Z,-0.20
2019-03-19T03:02:11.852Z,-0.20
2019-03-19T03:04:39.068Z,-0.30
2019-03-19T03:07:06.668Z,-0.50
2019-03-19T03:09:33.909Z,-0.50
2019-03-19T03:12:01.468Z,-0.60
2019-03-19T03:14:28.944Z,-0.60
2019-03-19T03:16:56.278Z,-0.50
2019-03-19T03:19:23.593Z,-0.40
2019-03-19T03:21:50.855Z,-0.30
2019-03-19T03:24:18.159Z,-0.30
2019-03-19T03:26:48.024Z,-0.40
2019-03-19T03:29:15.415Z,-0.40
2019-03-19T03:31:42.683Z,-0.30
2019-03-19T03:34:10.130Z,-0.40
2019-03-19T03:36:37.676Z,-0.40
2019-03-19T03:39:06.726Z,-0.40
2019-03-19T03:41:34.327Z,-0.50
2019-03-19T03:44:01.543Z,-0.40
2019-03-19T03:46:28.890Z,-0.50
2019-03-19T03:48:56.132Z,-0.50
2019-03-19T03:51:23.374Z,-0.50
2019-03-19T03:53:51.202Z,-0.60
2019-03-19T03:56:18.859Z,-0.60
2019-03-19T03:58:59.822Z,-0.60
2019-03-19T04:01:15.729Z,-0.70
2019-03-19T04:03:43.281Z,-0.70
2019-03-19T04:06:10.498Z,-0.70
2019-03-19T04:08:38.509Z,-0.90
2019-03-19T04:11:05.725Z,-0.90
2019-03-19T04:13:32.967Z,-0.90
2019-03-19T04:16:00.279Z,-0.80
2019-03-19T04:18:27.916Z,-0.80
2019-03-19T04:20:55.133Z,-0.80
2019-03-19T04:23:22.628Z,-0.80
2019-03-19T04:25:50.392Z,-0.80
2019-03-19T04:28:17.646Z,-0.90
2019-03-19T04:30:45.312Z,-1.00
2019-03-19T04:33:12.624Z,-1.10
2019-03-19T04:35:42.109Z,-1.00
2019-03-19T04:38:09.043Z,-0.90
2019-03-19T04:40:36.269Z,-0.90
2019-03-19T04:43:03.608Z,-0.90
2019-03-19T04:45:30.920Z,-1.00
2019-03-19T04:47:58.285Z,-1.00
2019-03-19T04:50:25.948Z,-1.00
2019-03-19T04:52:53.231Z,-1.00
2019-03-19T04:55:21.095Z,-1.00
2019-03-19T04:57:48.655Z,-1.00
2019-03-19T05:00:16.237Z,-1.00
2019-03-19T05:02:43.820Z,-1.00
2019-03-19T05:05:11.512Z,-1.00
2019-03-19T05:07:38.745Z,-1.00
2019-03-19T05:10:08.091Z,-1.10
2019-03-19T05:12:35.632Z,-1.00
2019-03-19T05:15:03.096Z,-0.90
2019-03-19T05:17:30.333Z,-0.70
2019-03-19T05:19:58.024Z,-0.60
2019-03-19T05:22:25.487Z,-0.60
2019-03-19T05:24:53.038Z,-0.50
2019-03-19T05:27:20.257Z,-0.60
2019-03-19T05:29:47.499Z,-0.50
2019-03-19T05:32:14.728Z,-0.40
2019-03-19T05:34:42.243Z,-0.50
2019-03-19T05:37:09.797Z,-0.50
2019-03-19T05:39:37.360Z,-0.50
2019-03-19T05:42:04.903Z,-0.50
2019-03-19T05:44:32.384Z,-0.50
2019-03-19T05:46:59.948Z,-0.50
2019-03-19T05:49:27.495Z,-0.40
2019-03-19T05:51:54.715Z,-0.40
2019-03-19T05:54:23.071Z,-0.30
2019-03-19T05:56:50.631Z,-0.30
2019-03-19T05:59:18.374Z,-0.30
2019-03-19T06:01:45.905Z,-0.30
2019-03-19T06:04:13.127Z,-0.20
2019-03-19T06:06:40.715Z,0.00
2019-03-19T06:09:08.223Z,-0.10
2019-03-19T06:11:35.448Z,-0.10
2019-03-19T06:14:03.076Z,-0.20
2019-03-19T06:16:30.291Z,-0.10
2019-03-19T06:18:57.792Z,0.00
2019-03-19T06:21:25.003Z,0.10
2019-03-19T06:23:52.641Z,0.20
2019-03-19T06:26:20.263Z,0.40
2019-03-19T06:28:47.481Z,0.50
2019-03-19T06:31:15.093Z,0.60
2019-03-19T06:33:42.839Z,0.80
2019-03-19T06:36:10.287Z,1.00
2019-03-19T06:38:37.565Z,1.20
2019-03-19T06:41:04.800Z,1.40
2019-03-19T06:43:32.360Z,1.50
2019-03-19T06:45:59.612Z,2.10
2019-03-19T06:48:26.938Z,2.50
2019-03-19T06:50:54.175Z,2.70
2019-03-19T06:53:22.084Z,3.30
2019-03-19T06:55:49.336Z,3.70
2019-03-19T06:58:16.571Z,4.20
2019-03-19T07:00:45.298Z,4.60
2019-03-19T07:03:12.529Z,5.30
2019-03-19T07:05:40.102Z,5.50
2019-03-19T07:08:07.645Z,5.50
2019-03-19T07:10:35.226Z,6.20
2019-03-19T07:13:02.968Z,6.60
2019-03-19T07:15:30.231Z,6.10
2019-03-19T07:17:57.782Z,6.70
2019-03-19T07:20:25.436Z,6.90
2019-03-19T07:22:52.685Z,6.00
2019-03-19T07:25:20.449Z,6.40
2019-03-19T07:27:47.675Z,7.00
2019-03-19T07:30:16.028Z,7.80
2019-03-19T07:32:43.252Z,8.00
2019-03-19T07:35:10.789Z,8.10
2019-03-19T07:37:38.339Z,8.80
2019-03-19T07:40:06.679Z,8.40
2019-03-19T07:42:33.909Z,8.50
2019-03-19T07:45:01.424Z,8.70
2019-03-19T07:47:29.089Z,8.90
2019-03-19T07:49:56.313Z,9.20
2019-03-19T07:52:23.803Z,9.10
2019-03-19T07:54:51.367Z,9.60
2019-03-19T07:57:18.819Z,10.60
2019-03-19T07:59:46.379Z,11.10
2019-03-19T08:02:13.949Z,10.10
2019-03-19T08:04:41.164Z,10.30
2019-03-19T08:07:08.663Z,10.40
2019-03-19T08:09:36.457Z,9.40
2019-03-19T08:12:03.811Z,8.70
2019-03-19T08:14:31.027Z,8.70
2019-03-19T08:16:58.262Z,8.80
2019-03-19T08:19:25.821Z,8.70
2019-03-19T08:21:53.156Z,9.40
2019-03-19T08:24:20.729Z,9.10
2019-03-19T08:26:49.176Z,9.60
2019-03-19T08:29:16.879Z,10.60
2019-03-19T08:31:44.119Z,10.50
2019-03-19T08:34:11.992Z,10.30
2019-03-19T08:36:39.554Z,10.90
2019-03-19T08:39:07.199Z,11.50
2019-03-19T08:41:34.465Z,11.50
2019-03-19T08:44:02.336Z,11.60
2019-03-19T08:46:29.922Z,12.00
2019-03-19T08:48:57.216Z,11.90
2019-03-19T08:51:24.607Z,11.60
2019-03-19T08:53:51.860Z,11.50
2019-03-19T08:56:19.172Z,11.40
2019-03-19T08:58:46.387Z,11.20
2019-03-19T09:01:13.903Z,11.10
2019-03-19T09:03:41.124Z,11.50
2019-03-19T09:06:08.459Z,11.70
2019-03-19T09:08:35.986Z,12.00
2019-03-19T09:11:03.216Z,12.40
2019-03-19T09:13:30.815Z,12.40
2019-03-19T09:15:58.042Z,12.60
2019-03-19T09:18:27.447Z,12.40
2019-03-19T09:20:55.003Z,12.80
2019-03-19T09:23:22.235Z,12.30
2019-03-19T09:25:49.467Z,12.30
2019-03-19T09:28:17.067Z,12.50
2019-03-19T09:30:44.295Z,12.30
2019-03-19T09:33:11.887Z,11.90
2019-03-19T09:35:39.740Z,11.50
2019-03-19T09:38:06.971Z,11.50
2019-03-19T09:40:34.195Z,11.30
2019-03-19T09:43:01.747Z,11.90
2019-03-19T09:45:29.073Z,12.20
2019-03-19T09:47:56.328Z,11.90
2019-03-19T09:50:23.737Z,12.20
2019-03-19T09:52:50.958Z,11.70
2019-03-19T09:55:18.178Z,11.90
2019-03-19T09:57:45.732Z,12.20
2019-03-19T10:00:15.496Z,12.70
2019-03-19T10:02:42.995Z,13.20
2019-03-19T10:05:10.556Z,14.30
2019-03-19T10:07:38.319Z,15.10
2019-03-19T10:10:06.411Z,15.10
2019-03-19T10:12:33.647Z,14.20
2019-03-19T10:15:01.199Z,14.10
2019-03-19T10:17:28.759Z,13.80
2019-03-19T10:19:56.009Z,14.10
2019-03-19T10:22:23.577Z,14.50
2019-03-19T10:24:50.789Z,14.50
2019-03-19T10:27:19.653Z,15.20
2019-03-19T10:29:47.375Z,14.70
2019-03-19T10:32:14.932Z,15.10
2019-03-19T10:34:42.157Z,15.70
2019-03-19T10:37:09.648Z,15.70
2019-03-19T10:39:36.875Z,14.90
2019-03-19T10:42:04.454Z,15.60
2019-03-19T10:44:32.012Z,15.70
2019-03-19T10:46:59.165Z,16.80
2019-03-19T10:49:26.734Z,16.00
2019-03-19T10:51:54.601Z,14.90
2019-03-19T10:54:22.257Z,15.20
2019-03-19T10:56:49.585Z,14.00
2019-03-19T10:59:17.165Z,12.20
2019-03-19T11:01:44.379Z,11.10
2019-03-19T11:04:11.595Z,10.50
2019-03-19T11:06:39.132Z,11.20
2019-03-19T11:09:06.975Z,14.10
2019-03-19T11:11:34.547Z,16.10
2019-03-19T11:14:02.723Z,17.70
2019-03-19T11:16:30.268Z,18.40
2019-03-19T11:18:57.521Z,19.30
2019-03-19T11:21:24.731Z,18.40
2019-03-19T11:23:51.972Z,19.00
2019-03-19T11:26:19.797Z,18.30
2019-03-19T11:28:47.366Z,17.70
2019-03-19T11:31:14.588Z,18.60
2019-03-19T11:33:41.838Z,18.90
2019-03-19T11:36:09.049Z,19.00
2019-03-19T11:38:36.772Z,17.50
2019-03-19T11:41:04.210Z,18.30
2019-03-19T11:43:31.455Z,19.30
2019-03-19T11:45:58.935Z,19.50
2019-03-19T11:48:26.496Z,18.80
2019-03-19T11:50:54.051Z,18.50
2019-03-19T11:53:21.291Z,19.40
2019-03-19T11:55:48.409Z,20.00
2019-03-19T11:58:15.735Z,20.30
2019-03-19T12:00:45.366Z,20.50
2019-03-19T12:03:16.367Z,19.80
2019-03-19T12:05:42.004Z,20.40
2019-03-19T12:08:09.248Z,19.70
2019-03-19T12:10:36.473Z,19.50
2019-03-19T12:13:04.333Z,18.90
2019-03-19T12:15:31.545Z,18.80
2019-03-19T12:17:58.788Z,18.90
2019-03-19T12:20:26.005Z,19.10
2019-03-19T12:22:53.585Z,19.60
2019-03-19T12:25:21.114Z,19.90
2019-03-19T12:27:48.368Z,19.10
2019-03-19T12:30:22.128Z,18.60
2019-03-19T12:32:44.795Z,18.90
2019-03-19T12:35:12.534Z,18.20
2019-03-19T12:37:39.772Z,18.40
2019-03-19T12:40:09.077Z,17.30
2019-03-19T12:42:36.697Z,17.70
2019-03-19T12:45:05.340Z,18.10
2019-03-19T12:47:32.696Z,18.40
2019-03-19T12:50:00.459Z,18.10
2019-03-19T12:52:27.795Z,18.20
2019-03-19T12:54:55.295Z,17.90
2019-03-19T12:57:22.895Z,18.00
2019-03-19T12:59:50.200Z,17.10
2019-03-19T13:02:17.427Z,16.60
2019-03-19T13:04:45.751Z,17.40
2019-03-19T13:07:13.007Z,17.30
2019-03-19T13:09:40.267Z,17.20
2019-03-19T13:12:07.804Z,16.60
2019-03-19T13:14:35.064Z,16.80
2019-03-19T13:17:02.735Z,16.80
2019-03-19T13:19:30.279Z,17.30
2019-03-19T13:21:57.520Z,17.00
2019-03-19T13:24:24.779Z,16.40
2019-03-19T13:26:52.008Z,16.40
2019-03-19T13:29:19.598Z,15.60
2019-03-19T13:31:46.824Z,14.40
2019-03-19T13:34:14.401Z,13.10
2019-03-19T13:36:41.636Z,12.90
2019-03-19T13:39:09.531Z,12.90
2019-03-19T13:41:36.756Z,12.40
2019-03-19T13:44:04.073Z,12.40
2019-03-19T13:46:31.306Z,12.10
2019-03-19T13:48:58.865Z,12.10
2019-03-19T13:51:26.189Z,12.00
2019-03-19T13:53:53.505Z,11.90
2019-03-19T13:56:20.737Z,11.40
2019-03-19T13:58:48.018Z,11.50
2019-03-19T14:01:15.602Z,11.40
2019-03-19T14:03:42.873Z,10.80
2019-03-19T14:06:10.413Z,10.60
2019-03-19T14:08:37.639Z,10.90
2019-03-19T14:11:04.857Z,10.70
2019-03-19T14:13:32.067Z,10.80
2019-03-19T14:16:00.363Z,10.50
2019-03-19T14:18:27.608Z,10.50
2019-03-19T14:20:54.825Z,10.20
2019-03-19T14:23:22.252Z,10.40
2019-03-19T14:25:50.167Z,10.50
2019-03-19T14:28:19.535Z,10.20
2019-03-19T14:30:46.868Z,10.10
2019-03-19T14:33:14.479Z,10.00
2019-03-19T14:35:42.062Z,10.10
2019-03-19T14:38:09.608Z,10.10
2019-03-19T14:40:36.865Z,10.20
2019-03-19T14:43:04.385Z,10.00
2019-03-19T14:45:31.871Z,9.90
2019-03-19T14:47:59.119Z,10.00
2019-03-19T14:50:26.335Z,10.10
2019-03-19T14:52:53.937Z,10.00
2019-03-19T14:55:21.658Z,9.90
2019-03-19T14:57:50.896Z,9.80
2019-03-19T15:00:18.661Z,10.00
2019-03-19T15:02:46.000Z,9.80
2019-03-19T15:05:13.568Z,9.50
2019-03-19T15:07:40.805Z,9.50
2019-03-19T15:10:10.281Z,9.60
2019-03-19T15:12:37.527Z,9.70
2019-03-19T15:15:05.854Z,9.70
2019-03-19T15:17:33.091Z,9.80
2019-03-19T15:20:00.431Z,9.80
2019-03-19T15:22:32.568Z,9.80
2019-03-19T15:24:56.873Z,9.60
2019-03-19T15:27:24.114Z,9.60
2019-03-19T15:29:51.429Z,9.60
2019-03-19T15:32:19.103Z,9.60
2019-03-19T15:34:46.636Z,9.40
2019-03-19T15:37:14.190Z,9.20
2019-03-19T15:39:41.407Z,9.20
2019-03-19T15:42:08.635Z,9.30
2019-03-19T15:44:36.256Z,9.50
2019-03-19T15:47:03.472Z,9.50
2019-03-19T15:49:38.076Z,9.60
2019-03-19T15:52:00.178Z,9.50
2019-03-19T15:54:27.390Z,9.30
2019-03-19T15:56:54.611Z,9.30
2019-03-19T15:59:22.133Z,9.30
2019-03-19T16:01:49.471Z,9.40
2019-03-19T16:04:16.769Z,9.40
2019-03-19T16:06:44.383Z,9.30
2019-03-19T16:09:11.967Z,9.40
2019-03-19T16:11:39.487Z,9.30
2019-03-19T16:14:07.065Z,9.20
2019-03-19T16:16:34.400Z,9.20
2019-03-19T16:19:01.780Z,9.20
2019-03-19T16:21:29.331Z,9.20
2019-03-19T16:23:56.587Z,9.00
2019-03-19T16:26:24.961Z,9.00
2019-03-19T16:28:52.212Z,9.00
2019-03-19T16:31:19.445Z,9.10
2019-03-19T16:33:47.051Z,9.10
2019-03-19T16:36:14.580Z,9.00
2019-03-19T16:38:41.978Z,9.00
2019-03-19T16:41:09.288Z,8.90
2019-03-19T16:43:36.601Z,8.70
2019-03-19T16:46:03.834Z,8.60
2019-03-19T16:48:31.760Z,8.50
2019-03-19T16:50:59.322Z,8.30
2019-03-19T16:53:26.590Z,8.10
2019-03-19T16:55:54.241Z,7.90
2019-03-19T16:58:21.613Z,7.90
2019-03-19T17:00:48.831Z,7.90
2019-03-19T17:03:16.428Z,7.90
2019-03-19T17:05:44.635Z,7.90
2019-03-19T17:08:12.364Z,7.80
2019-03-19T17:10:39.671Z,7.70
2019-03-19T17:13:07.056Z,7.60
2019-03-19T17:15:34.703Z,7.50
2019-03-19T17:18:02.264Z,7.30
2019-03-19T17:20:29.823Z,7.00
2019-03-19T17:22:57.099Z,6.90
2019-03-19T17:25:24.634Z,6.60
2019-03-19T17:27:52.396Z,6.50
2019-03-19T17:30:21.804Z,6.40
2019-03-19T17:32:49.013Z,6.30
2019-03-19T17:35:16.612Z,6.10
2019-03-19T17:37:44.174Z,5.90
2019-03-19T17:40:11.453Z,5.90
2019-03-19T17:42:38.776Z,5.70
2019-03-19T17:45:06.539Z,5.50
2019-03-19T17:47:33.842Z,5.40
2019-03-19T17:50:01.363Z,5.30
2019-03-19T17:52:28.932Z,5.30
2019-03-19T17:54:56.740Z,5.20
2019-03-19T17:57:24.343Z,5.30
2019-03-19T17:59:51.892Z,5.20
2019-03-19T18:02:23.834Z,5.20
2019-03-19T18:04:48.503Z,5.10
2019-03-19T18:07:15.721Z,5.00
2019-03-19T18:09:43.251Z,4.90
2019-03-19T18:12:10.824Z,4.90
2019-03-19T18:14:38.608Z,4.80
2019-03-19T18:17:06.135Z,4.70
2019-03-19T18:19:33.386Z,4.70
2019-03-19T18:22:00.594Z,4.90
2019-03-19T18:24:27.799Z,4.70
2019-03-19T18:26:55.027Z,4.50
2019-03-19T18:29:22.623Z,4.30
2019-03-19T18:31:50.263Z,4.30
2019-03-19T18:34:19.196Z,4.30
2019-03-19T18:36:46.613Z,4.20
2019-03-19T18:39:14.167Z,4.00
2019-03-19T18:41:41.726Z,3.90
2019-03-19T18:44:09.588Z,3.90
2019-03-19T18:46:37.661Z,3.80
2019-03-19T18:49:05.000Z,3.90
2019-03-19T18:51:32.311Z,4.00
2019-03-19T18:53:59.532Z,4.00
2019-03-19T18:56:26.885Z,4.00
2019-03-19T18:58:54.095Z,3.90
2019-03-19T19:01:21.337Z,3.70
2019-03-19T19:03:48.940Z,3.50
2019-03-19T19:06:16.544Z,3.40
2019-03-19T19:08:44.159Z,3.30
2019-03-19T19:11:11.740Z,3.20
2019-03-19T19:13:38.964Z,3.20
2019-03-19T19:16:06.621Z,3.10
2019-03-19T19:18:34.436Z,3.00
2019-03-19T19:21:01.780Z,3.10
2019-03-19T19:23:29.310Z,3.10
2019-03-19T19:25:56.861Z,3.10
2019-03-19T19:28:24.843Z,3.10
2019-03-19T19:33:34.290Z,3.00
2019-03-19T19:36:01.533Z,2.80
2019-03-19T19:38:29.113Z,2.60
2019-03-19T19:40:56.396Z,2.60
2019-03-19T19:43:23.993Z,2.70
2019-03-19T19:45:51.357Z,2.70
2019-03-19T19:48:18.596Z,2.80
2019-03-19T19:50:46.152Z,2.70
2019-03-19T19:53:15.741Z,2.50
2019-03-19T19:55:42.781Z,2.60
2019-03-19T19:58:10.025Z,2.60
2019-03-19T20:00:37.653Z,2.60
2019-03-19T20:03:12.374Z,2.60
2019-03-19T20:05:34.382Z,2.60
2019-03-19T20:08:01.628Z,2.50
2019-03-19T20:10:28.877Z,2.40
2019-03-19T20:12:56.445Z,2.40
2019-03-19T20:15:23.810Z,2.40
2019-03-19T20:17:51.041Z,2.40
2019-03-19T20:20:18.312Z,2.30
2019-03-19T20:22:45.553Z,2.30
2019-03-19T20:25:13.440Z,2.30
2019-03-19T20:27:40.680Z,2.30
2019-03-19T20:30:10.980Z,2.20
2019-03-19T20:32:38.220Z,2.20
2019-03-19T20:35:06.497Z,2.10
2019-03-19T20:37:33.728Z,2.10
2019-03-19T20:40:00.978Z,2.10
2019-03-19T20:42:28.304Z,2.10
2019-03-19T20:44:55.877Z,2.00
2019-03-19T20:47:23.397Z,2.00
2019-03-19T20:49:50.625Z,1.90
2019-03-19T20:52:18.299Z,1.80
2019-03-19T20:54:45.558Z,1.70
2019-03-19T20:57:12.795Z,1.70
2019-03-19T20:59:40.048Z,1.50
2019-03-19T21:02:07.292Z,1.30
2019-03-19T21:04:34.540Z,1.20
2019-03-19T21:07:01.782Z,1.20
2019-03-19T21:09:29.012Z,1.10
2019-03-19T21:11:56.260Z,1.00
2019-03-19T21:14:23.493Z,1.00
2019-03-19T21:16:50.757Z,1.20
2019-03-19T21:19:18.024Z,1.30
2019-03-19T21:21:45.549Z,1.40
2019-03-19T21:24:13.573Z,1.40
2019-03-19T21:26:41.065Z,1.40
2019-03-19T21:29:08.305Z,1.30
2019-03-19T21:31:35.883Z,1.30
2019-03-19T21:34:03.212Z,1.20
2019-03-19T21:36:30.481Z,1.20
2019-03-19T21:38:57.710Z,1.20
2019-03-19T21:41:24.953Z,1.20
2019-03-19T21:43:52.185Z,1.10
2019-03-19T21:46:20.200Z,1.10
2019-03-19T21:48:47.755Z,1.00
2019-03-19T21:51:15.280Z,1.00
2019-03-19T21:53:42.980Z,1.00
2019-03-19T21:56:10.574Z,0.90
2019-03-19T21:58:38.136Z,0.70
2019-03-19T22:01:05.522Z,0.60
2019-03-19T22:03:32.766Z,0.60
2019-03-19T22:06:00.283Z,0.70
2019-03-19T22:08:27.556Z,0.70
2019-03-19T22:10:54.788Z,0.80
2019-03-19T22:13:22.379Z,0.80
2019-03-19T22:15:49.677Z,0.90
2019-03-19T22:18:16.940Z,0.60
2019-03-19T22:20:44.520Z,0.50
2019-03-19T22:23:12.217Z,0.50
2019-03-19T22:25:39.504Z,0.60
2019-03-19T22:28:07.477Z,0.60
2019-03-19T22:30:34.733Z,0.60
2019-03-19T22:33:02.137Z,0.50
2019-03-19T22:35:29.368Z,0.50
2019-03-19T22:37:56.660Z,0.50
2019-03-19T22:40:23.887Z,0.60
2019-03-19T22:42:51.155Z,0.40
2019-03-19T22:45:18.502Z,0.20
2019-03-19T22:47:45.781Z,0.10
2019-03-19T22:50:13.662Z,0.20
2019-03-19T22:52:40.844Z,0.20
2019-03-19T22:55:08.248Z,0.40
2019-03-19T22:57:35.540Z,0.40
2019-03-19T23:00:04.984Z,0.40
2019-03-19T23:02:32.243Z,0.40
2019-03-19T23:04:59.756Z,0.40
2019-03-19T23:07:27.345Z,0.40
2019-03-19T23:09:54.606Z,0.40
2019-03-19T23:12:21.857Z,0.40
2019-03-19T23:14:49.091Z,0.30
2019-03-19T23:17:16.356Z,0.00
2019-03-19T23:19:43.618Z,-0.10
2019-03-19T23:22:10.972Z,-0.30
2019-03-19T23:24:38.208Z,-0.30
2019-03-19T23:27:05.471Z,-0.30
2019-03-19T23:29:32.717Z,-0.10
2019-03-19T23:31:59.953Z,-0.20
2019-03-19T23:34:37.911Z,-0.20
2019-03-19T23:36:56.599Z,-0.10
2019-03-19T23:39:24.120Z,0.00
2019-03-19T23:41:51.381Z,0.00
2019-03-19T23:44:18.634Z,-0.10
2019-03-19T23:46:46.300Z,-0.10
2019-03-19T23:49:13.569Z,-0.20
2019-03-19T23:51:40.801Z,-0.30
2019-03-19T23:54:08.055Z,-0.40
2019-03-19T23:56:35.810Z,-0.50
2019-03-19T23:59:03.160Z,-0.60
